Time;durP1;ratioP1;P1;durP2;ratioP2;P2;SDS_P1;SDS_P2;PMS_P1;PMS_P2;Temp;Humidity;BMP_temperature;BMP_pressure;BME280_temperature;BME280_humidity;BME280_pressure;Samples;Min_cycle;Max_cycle;Signal;HPM_P1;HPM_P2
2022/10/15 00:01:57;;;;;;;1.00;1.00;;;;;;;;;;4961046;28;20215;-63
2022/10/15 00:04:23;;;;;;;1.10;1.10;;;;;;;;;;4957880;28;20304;-63
2022/10/15 00:06:49;;;;;;;1.00;1.00;;;;;;;;;;4947246;28;20247;-61
2022/10/15 00:09:15;;;;;;;1.00;1.00;;;;;;;;;;4949114;28;20255;-63
2022/10/15 00:11:40;;;;;;;0.90;0.90;;;;;;;;;;4940094;28;20238;-62
2022/10/15 00:14:06;;;;;;;0.80;0.80;;;;;;;;;;4949616;28;20255;-62
2022/10/15 00:16:32;;;;;;;0.80;0.80;;;;;;;;;;4966450;28;20246;-61
2022/10/15 00:18:58;;;;;;;1.00;1.00;;;;;;;;;;4966028;28;20650;-62
2022/10/15 00:21:24;;;;;;;1.00;1.00;;;;;;;;;;4967837;28;20304;-61
2022/10/15 00:23:51;;;;;;;0.90;0.90;;;;;;;;;;4963355;28;20490;-61
2022/10/15 00:26:18;;;;;;;0.90;0.90;;;;;;;;;;4954825;28;20231;-62
2022/10/15 00:28:44;;;;;;;1.10;1.10;;;;;;;;;;4960355;28;20342;-62
2022/10/15 00:31:11;;;;;;;1.00;1.00;;;;;;;;;;4958484;28;20593;-59
2022/10/15 00:33:37;;;;;;;1.00;1.00;;;;;;;;;;4951418;28;20238;-61
2022/10/15 00:36:26;;;;;;;1.00;1.00;;;;;;;;;;4963858;28;20235;-62
2022/10/15 00:38:52;;;;;;;0.97;0.97;;;;;;;;;;4943264;28;20280;-60
2022/10/15 00:41:22;;;;;;;1.00;1.00;;;;;;;;;;4972072;28;20286;-63
2022/10/15 00:43:49;;;;;;;1.00;1.00;;;;;;;;;;4962870;28;20585;-62
2022/10/15 00:46:20;;;;;;;1.00;1.00;;;;;;;;;;4964212;28;20229;-62
2022/10/15 00:48:47;;;;;;;1.00;1.00;;;;;;;;;;4949042;28;20231;-61
2022/10/15 00:51:13;;;;;;;1.00;1.00;;;;;;;;;;4962498;28;20761;-62
2022/10/15 00:53:39;;;;;;;0.90;0.90;;;;;;;;;;4926704;28;20227;-60
2022/10/15 00:56:05;;;;;;;1.10;1.10;;;;;;;;;;4934095;28;20239;-60
2022/10/15 00:58:31;;;;;;;1.00;1.00;;;;;;;;;;4941458;28;20227;-61
2022/10/15 01:00:57;;;;;;;0.90;0.90;;;;;;;;;;4954595;28;20593;-61
2022/10/15 01:03:23;;;;;;;1.00;1.00;;;;;;;;;;4933793;28;20725;-62
2022/10/15 01:05:49;;;;;;;0.90;0.90;;;;;;;;;;4942186;28;20320;-61
2022/10/15 01:08:15;;;;;;;0.97;0.97;;;;;;;;;;4946739;28;20235;-61
2022/10/15 01:10:47;;;;;;;1.00;1.00;;;;;;;;;;4970403;28;20241;-61
2022/10/15 01:13:14;;;;;;;1.00;1.00;;;;;;;;;;4938031;28;20230;-61
2022/10/15 01:15:51;;;;;;;1.00;1.00;;;;;;;;;;4962848;28;20232;-61
2022/10/15 01:18:19;;;;;;;1.10;1.10;;;;;;;;;;4959921;28;20245;-62
2022/10/15 01:21:02;;;;;;;0.90;0.90;;;;;;;;;;4956637;28;20235;-61
2022/10/15 01:23:42;;;;;;;1.10;1.10;;;;;;;;;;4950926;28;20238;-61
2022/10/15 01:26:21;;;;;;;0.90;0.90;;;;;;;;;;4959724;28;20632;-62
2022/10/15 01:29:02;;;;;;;1.00;1.00;;;;;;;;;;4938400;28;21009;-62
2022/10/15 01:31:34;;;;;;;1.00;1.00;;;;;;;;;;4953508;28;20304;-60
2022/10/15 01:34:09;;;;;;;1.00;1.00;;;;;;;;;;4962203;28;20245;-61
2022/10/15 01:36:37;;;;;;;0.90;0.90;;;;;;;;;;4966894;28;20683;-62
2022/10/15 01:39:21;;;;;;;0.90;0.90;;;;;;;;;;4960824;28;20232;-60
2022/10/15 01:41:49;;;;;;;1.00;1.00;;;;;;;;;;4955863;28;20250;-61
2022/10/15 01:44:29;;;;;;;1.00;1.00;;;;;;;;;;4928020;28;20862;-61
2022/10/15 01:46:57;;;;;;;0.90;0.90;;;;;;;;;;4942230;28;20234;-60
2022/10/15 01:49:25;;;;;;;1.10;1.10;;;;;;;;;;4952242;28;20219;-60
2022/10/15 01:51:51;;;;;;;1.00;1.00;;;;;;;;;;4968752;28;20223;-60
2022/10/15 01:54:17;;;;;;;0.83;0.83;;;;;;;;;;4965055;28;20329;-61
2022/10/15 01:56:48;;;;;;;0.90;0.90;;;;;;;;;;4928019;28;20270;-61
2022/10/15 01:59:14;;;;;;;1.07;1.07;;;;;;;;;;4942236;28;20701;-62
2022/10/15 02:01:42;;;;;;;1.00;1.00;;;;;;;;;;4956769;28;20228;-61
2022/10/15 02:04:18;;;;;;;1.10;1.10;;;;;;;;;;4967956;28;20309;-61
2022/10/15 02:06:44;;;;;;;0.90;0.90;;;;;;;;;;4958465;28;20302;-62
2022/10/15 02:09:14;;;;;;;0.90;0.90;;;;;;;;;;4933756;28;20249;-62
2022/10/15 02:11:48;;;;;;;0.90;0.90;;;;;;;;;;4964174;28;20665;-61
2022/10/15 02:14:15;;;;;;;1.03;1.03;;;;;;;;;;4950025;28;20238;-62
2022/10/15 02:16:47;;;;;;;1.10;1.10;;;;;;;;;;4917820;28;20240;-59
2022/10/15 02:19:34;;;;;;;1.00;1.00;;;;;;;;;;4920501;28;20228;-61
2022/10/15 02:22:08;;;;;;;1.00;1.00;;;;;;;;;;4922293;28;20265;-61
2022/10/15 02:24:39;;;;;;;1.00;1.00;;;;;;;;;;4937732;28;20262;-61
2022/10/15 02:27:05;;;;;;;1.10;1.10;;;;;;;;;;4914044;28;20216;-61
2022/10/15 02:29:32;;;;;;;1.10;1.10;;;;;;;;;;4924416;28;20304;-61
2022/10/15 02:31:58;;;;;;;1.00;1.00;;;;;;;;;;4921609;28;20246;-61
2022/10/15 02:34:25;;;;;;;0.90;0.90;;;;;;;;;;4931358;28;20298;-62
2022/10/15 02:36:51;;;;;;;1.10;1.10;;;;;;;;;;4933270;28;20255;-60
2022/10/15 02:39:18;;;;;;;0.80;0.80;;;;;;;;;;4924058;28;20311;-62
2022/10/15 02:41:44;;;;;;;1.00;1.00;;;;;;;;;;4928233;28;20284;-61
2022/10/15 02:44:10;;;;;;;0.90;0.90;;;;;;;;;;4922074;28;20793;-61
2022/10/15 02:46:36;;;;;;;0.93;0.93;;;;;;;;;;4929535;28;20707;-61
2022/10/15 02:49:02;;;;;;;1.00;1.00;;;;;;;;;;4927737;28;20267;-61
2022/10/15 02:51:31;;;;;;;1.00;1.00;;;;;;;;;;4921517;28;20324;-61
2022/10/15 02:53:57;;;;;;;1.00;1.00;;;;;;;;;;4931135;28;20227;-60
2022/10/15 02:56:23;;;;;;;1.03;1.03;;;;;;;;;;4929039;28;20226;-59
2022/10/15 02:58:49;;;;;;;0.83;0.83;;;;;;;;;;4926806;28;20916;-62
2022/10/15 03:01:15;;;;;;;1.00;1.00;;;;;;;;;;4929040;28;20246;-60
2022/10/15 03:03:40;;;;;;;1.00;1.00;;;;;;;;;;4910532;28;20336;-62
2022/10/15 03:06:07;;;;;;;0.90;0.90;;;;;;;;;;4932084;28;20354;-61
2022/10/15 03:08:33;;;;;;;1.00;1.00;;;;;;;;;;4925447;28;20250;-61
2022/10/15 03:11:00;;;;;;;0.90;0.90;;;;;;;;;;4915007;28;20231;-61
2022/10/15 03:13:26;;;;;;;0.80;0.80;;;;;;;;;;4918269;28;20230;-60
2022/10/15 03:15:52;;;;;;;1.03;1.03;;;;;;;;;;4922895;28;20297;-62
2022/10/15 03:18:18;;;;;;;0.90;0.90;;;;;;;;;;4940401;28;20271;-62
2022/10/15 03:20:46;;;;;;;0.80;0.80;;;;;;;;;;4958915;28;20218;-61
2022/10/15 03:23:12;;;;;;;0.90;0.90;;;;;;;;;;4952101;28;20707;-61
2022/10/15 03:25:38;;;;;;;0.90;0.90;;;;;;;;;;4954657;28;20226;-62
2022/10/15 03:28:04;;;;;;;0.70;0.70;;;;;;;;;;4948026;28;20235;-62
2022/10/15 03:30:29;;;;;;;0.90;0.90;;;;;;;;;;4954826;28;20272;-61
2022/10/15 03:32:55;;;;;;;0.80;0.80;;;;;;;;;;4945354;28;20679;-62
2022/10/15 03:35:21;;;;;;;0.80;0.80;;;;;;;;;;4954247;28;20713;-62
2022/10/15 03:37:47;;;;;;;0.90;0.90;;;;;;;;;;4954485;28;20921;-61
2022/10/15 03:40:13;;;;;;;0.90;0.90;;;;;;;;;;4951871;28;20670;-59
2022/10/15 03:42:39;;;;;;;0.90;0.90;;;;;;;;;;4954833;28;20314;-62
2022/10/15 03:45:05;;;;;;;0.90;0.90;;;;;;;;;;4958973;28;20215;-61
2022/10/15 03:47:31;;;;;;;0.90;0.90;;;;;;;;;;4948820;28;20289;-61
2022/10/15 03:49:57;;;;;;;0.90;0.90;;;;;;;;;;4951958;28;20566;-60
2022/10/15 03:52:23;;;;;;;0.90;0.90;;;;;;;;;;4951006;28;20784;-61
2022/10/15 03:54:49;;;;;;;0.80;0.80;;;;;;;;;;4944429;28;20565;-61
2022/10/15 03:57:15;;;;;;;1.00;1.00;;;;;;;;;;4946335;28;20711;-60
2022/10/15 03:59:41;;;;;;;0.90;0.90;;;;;;;;;;4938519;28;20702;-62
2022/10/15 04:02:07;;;;;;;0.80;0.80;;;;;;;;;;4944237;28;20973;-61
2022/10/15 04:04:33;;;;;;;1.00;1.00;;;;;;;;;;4947465;28;20221;-61
2022/10/15 04:06:59;;;;;;;0.90;0.90;;;;;;;;;;4942651;28;20736;-60
2022/10/15 04:09:25;;;;;;;0.80;0.80;;;;;;;;;;4955256;28;20699;-63
2022/10/15 04:11:51;;;;;;;0.90;0.90;;;;;;;;;;4940602;28;20676;-61
2022/10/15 04:14:19;;;;;;;0.90;0.90;;;;;;;;;;4948191;28;21332;-61
2022/10/15 04:16:44;;;;;;;0.90;0.90;;;;;;;;;;4951778;28;20658;-61
2022/10/15 04:19:10;;;;;;;0.90;0.90;;;;;;;;;;4949765;28;20226;-62
2022/10/15 04:21:36;;;;;;;0.70;0.70;;;;;;;;;;4948355;28;20222;-61
2022/10/15 04:24:02;;;;;;;0.90;0.90;;;;;;;;;;4954564;28;20224;-62
2022/10/15 04:26:28;;;;;;;0.90;0.90;;;;;;;;;;4969461;28;20296;-61
2022/10/15 04:28:54;;;;;;;0.90;0.90;;;;;;;;;;4960751;28;20227;-61
2022/10/15 04:31:20;;;;;;;0.90;0.90;;;;;;;;;;4967858;28;20325;-60
2022/10/15 04:33:49;;;;;;;0.83;0.83;;;;;;;;;;4953499;28;20715;-61
2022/10/15 04:36:15;;;;;;;0.90;0.90;;;;;;;;;;4956119;28;20739;-61
2022/10/15 04:38:41;;;;;;;0.70;0.70;;;;;;;;;;4936941;28;20227;-60
2022/10/15 04:41:08;;;;;;;0.93;0.93;;;;;;;;;;4931003;28;20295;-59
2022/10/15 04:43:34;;;;;;;0.70;0.70;;;;;;;;;;4926289;28;20985;-61
2022/10/15 04:46:00;;;;;;;0.90;0.90;;;;;;;;;;4954508;28;20214;-61
2022/10/15 04:48:30;;;;;;;1.07;1.07;;;;;;;;;;4950797;28;21999;-61
2022/10/15 04:51:02;;;;;;;0.90;0.90;;;;;;;;;;4952570;28;20221;-61
2022/10/15 04:53:28;;;;;;;1.00;1.00;;;;;;;;;;4949943;28;20227;-62
2022/10/15 04:55:54;;;;;;;0.80;0.80;;;;;;;;;;4930531;28;20222;-61
2022/10/15 04:58:19;;;;;;;1.00;1.00;;;;;;;;;;4920793;28;20280;-60
2022/10/15 05:00:45;;;;;;;1.00;1.00;;;;;;;;;;4951036;28;20804;-61
2022/10/15 05:03:11;;;;;;;1.00;1.00;;;;;;;;;;4934406;28;22628;-61
2022/10/15 05:05:37;;;;;;;0.80;0.80;;;;;;;;;;4940424;28;20222;-60
2022/10/15 05:08:03;;;;;;;0.90;0.90;;;;;;;;;;4931994;28;20220;-61
2022/10/15 05:10:29;;;;;;;0.90;0.90;;;;;;;;;;4942261;28;20233;-61
2022/10/15 05:12:55;;;;;;;0.90;0.90;;;;;;;;;;4931176;28;20711;-61
2022/10/15 05:15:21;;;;;;;0.80;0.80;;;;;;;;;;4942005;28;20234;-61
2022/10/15 05:17:47;;;;;;;0.80;0.80;;;;;;;;;;4931633;28;20248;-59
2022/10/15 05:20:13;;;;;;;1.10;1.10;;;;;;;;;;4937762;28;20325;-59
2022/10/15 05:22:39;;;;;;;0.90;0.90;;;;;;;;;;4950331;28;20231;-61
2022/10/15 05:25:05;;;;;;;0.90;0.90;;;;;;;;;;4953147;28;21666;-60
2022/10/15 05:27:31;;;;;;;0.80;0.80;;;;;;;;;;4950013;28;20259;-60
2022/10/15 05:29:57;;;;;;;1.00;1.00;;;;;;;;;;4936963;28;20232;-61
2022/10/15 05:32:23;;;;;;;0.80;0.80;;;;;;;;;;4930781;28;20493;-60
2022/10/15 05:34:49;;;;;;;0.97;0.97;;;;;;;;;;4941378;28;20739;-59
2022/10/15 05:37:15;;;;;;;1.00;1.00;;;;;;;;;;4932474;28;20598;-60
2022/10/15 05:39:41;;;;;;;0.80;0.80;;;;;;;;;;4909797;28;20696;-59
2022/10/15 05:42:09;;;;;;;0.90;0.90;;;;;;;;;;4951057;28;20288;-59
2022/10/15 05:44:35;;;;;;;0.80;0.80;;;;;;;;;;4933637;28;20226;-61
2022/10/15 05:47:01;;;;;;;0.90;0.90;;;;;;;;;;4963078;28;20237;-62
2022/10/15 05:49:27;;;;;;;0.80;0.80;;;;;;;;;;4956669;28;20287;-60
2022/10/15 05:51:53;;;;;;;0.90;0.90;;;;;;;;;;4960140;28;20225;-59
2022/10/15 05:54:19;;;;;;;0.80;0.80;;;;;;;;;;4963753;28;20325;-61
2022/10/15 05:56:45;;;;;;;1.10;1.10;;;;;;;;;;4943880;28;20227;-59
2022/10/15 05:59:11;;;;;;;0.90;0.90;;;;;;;;;;4950933;28;20603;-61
2022/10/15 06:01:36;;;;;;;0.70;0.70;;;;;;;;;;4970363;28;20243;-60
2022/10/15 06:04:02;;;;;;;0.87;0.87;;;;;;;;;;4966057;28;20743;-61
2022/10/15 06:06:28;;;;;;;1.00;1.00;;;;;;;;;;4958705;28;20275;-59
2022/10/15 06:08:54;;;;;;;0.90;0.90;;;;;;;;;;4957864;28;20660;-60
2022/10/15 06:11:20;;;;;;;0.80;0.80;;;;;;;;;;4957917;28;22493;-61
2022/10/15 06:13:46;;;;;;;0.80;0.80;;;;;;;;;;4957178;28;20231;-60
2022/10/15 06:16:13;;;;;;;0.90;0.90;;;;;;;;;;4965107;28;21434;-60
2022/10/15 06:18:39;;;;;;;1.00;1.00;;;;;;;;;;4971587;28;20602;-60
2022/10/15 06:21:06;;;;;;;1.00;1.00;;;;;;;;;;4956520;28;20878;-59
2022/10/15 06:23:32;;;;;;;1.03;1.03;;;;;;;;;;4963470;28;20233;-60
2022/10/15 06:26:01;;;;;;;0.90;0.90;;;;;;;;;;4963528;28;20223;-61
2022/10/15 06:28:27;;;;;;;0.97;0.97;;;;;;;;;;4965219;28;20724;-59
2022/10/15 06:30:53;;;;;;;1.00;1.00;;;;;;;;;;4960008;28;20224;-63
2022/10/15 06:33:19;;;;;;;0.90;0.90;;;;;;;;;;4955909;28;20333;-61
2022/10/15 06:35:45;;;;;;;0.80;0.80;;;;;;;;;;4947646;28;20245;-64
2022/10/15 06:38:11;;;;;;;0.90;0.90;;;;;;;;;;4931641;28;20304;-62
2022/10/15 06:40:37;;;;;;;1.00;1.00;;;;;;;;;;4965248;28;20722;-60
2022/10/15 06:43:04;;;;;;;1.00;1.00;;;;;;;;;;4955600;28;20273;-61
2022/10/15 06:45:30;;;;;;;0.70;0.70;;;;;;;;;;4935604;28;20684;-59
2022/10/15 06:47:56;;;;;;;0.90;0.90;;;;;;;;;;4959441;28;20232;-61
2022/10/15 06:50:22;;;;;;;0.93;0.93;;;;;;;;;;4957673;28;20225;-59
2022/10/15 06:52:48;;;;;;;1.00;1.00;;;;;;;;;;4967886;28;20302;-59
2022/10/15 06:55:14;;;;;;;0.90;0.90;;;;;;;;;;4944001;28;20235;-61
2022/10/15 06:57:40;;;;;;;0.90;0.90;;;;;;;;;;4963547;28;20258;-61
2022/10/15 07:00:06;;;;;;;1.00;1.00;;;;;;;;;;4948435;28;20230;-61
2022/10/15 07:02:35;;;;;;;0.90;0.90;;;;;;;;;;4964179;28;20223;-60
2022/10/15 07:05:00;;;;;;;0.80;0.80;;;;;;;;;;4964447;28;20237;-61
2022/10/15 07:07:26;;;;;;;0.90;0.90;;;;;;;;;;4953916;28;21147;-60
2022/10/15 07:09:54;;;;;;;1.00;1.00;;;;;;;;;;4957060;28;20330;-61
2022/10/15 07:12:21;;;;;;;0.90;0.90;;;;;;;;;;4957313;28;20252;-61
2022/10/15 07:14:47;;;;;;;0.80;0.80;;;;;;;;;;4959431;28;20214;-60
2022/10/15 07:17:13;;;;;;;1.00;1.00;;;;;;;;;;4955066;28;20626;-60
2022/10/15 07:19:39;;;;;;;0.90;0.90;;;;;;;;;;4962371;28;20230;-60
2022/10/15 07:22:05;;;;;;;0.80;0.80;;;;;;;;;;4933420;28;20231;-61
2022/10/15 07:24:31;;;;;;;1.00;1.00;;;;;;;;;;4954767;28;20292;-60
2022/10/15 07:26:57;;;;;;;1.00;1.00;;;;;;;;;;4956434;28;20245;-61
2022/10/15 07:29:23;;;;;;;0.90;0.90;;;;;;;;;;4970251;28;20597;-61
2022/10/15 07:31:49;;;;;;;1.00;1.00;;;;;;;;;;4947321;28;20233;-60
2022/10/15 07:34:15;;;;;;;0.90;0.90;;;;;;;;;;4959686;28;20387;-61
2022/10/15 07:36:41;;;;;;;1.00;1.00;;;;;;;;;;4949832;28;20223;-61
2022/10/15 07:39:06;;;;;;;0.80;0.80;;;;;;;;;;4961545;28;20236;-61
2022/10/15 07:41:32;;;;;;;0.80;0.80;;;;;;;;;;4951193;28;20235;-59
2022/10/15 07:43:58;;;;;;;0.90;0.90;;;;;;;;;;4966138;28;20292;-62
2022/10/15 07:46:25;;;;;;;0.90;0.90;;;;;;;;;;4961698;28;20597;-61
2022/10/15 07:48:51;;;;;;;0.90;0.90;;;;;;;;;;4943325;28;21497;-59
2022/10/15 07:51:17;;;;;;;0.93;0.93;;;;;;;;;;4944552;28;20218;-60
2022/10/15 07:53:43;;;;;;;0.90;0.90;;;;;;;;;;4926620;28;20700;-61
2022/10/15 07:56:10;;;;;;;0.70;0.70;;;;;;;;;;4954087;28;20673;-59
2022/10/15 07:58:37;;;;;;;0.80;0.80;;;;;;;;;;4948079;28;20224;-58
2022/10/15 08:01:03;;;;;;;0.90;0.90;;;;;;;;;;4945470;28;20278;-61
2022/10/15 08:03:29;;;;;;;0.80;0.80;;;;;;;;;;4944704;28;20318;-58
2022/10/15 08:05:55;;;;;;;0.80;0.80;;;;;;;;;;4943659;28;21041;-60
2022/10/15 08:08:21;;;;;;;0.70;0.70;;;;;;;;;;4957059;28;20699;-60
2022/10/15 08:10:48;;;;;;;1.00;1.00;;;;;;;;;;4958813;28;20240;-58
2022/10/15 08:13:13;;;;;;;0.80;0.80;;;;;;;;;;4944975;28;20247;-57
2022/10/15 08:15:40;;;;;;;0.70;0.70;;;;;;;;;;4948869;28;20222;-59
2022/10/15 08:18:06;;;;;;;0.90;0.90;;;;;;;;;;4933520;28;21217;-59
2022/10/15 08:20:32;;;;;;;0.80;0.80;;;;;;;;;;4952666;28;21429;-58
2022/10/15 08:22:58;;;;;;;0.87;0.87;;;;;;;;;;4956269;28;20218;-60
2022/10/15 08:25:24;;;;;;;0.80;0.80;;;;;;;;;;4947722;28;20227;-59
2022/10/15 08:27:52;;;;;;;0.80;0.80;;;;;;;;;;4959613;28;20837;-62
2022/10/15 08:30:18;;;;;;;0.90;0.90;;;;;;;;;;4948904;28;21075;-62
2022/10/15 08:32:44;;;;;;;0.90;0.90;;;;;;;;;;4963922;28;20233;-62
2022/10/15 08:35:10;;;;;;;0.90;0.90;;;;;;;;;;4960124;28;20808;-61
2022/10/15 08:37:36;;;;;;;1.00;1.00;;;;;;;;;;4966762;28;20333;-61
2022/10/15 08:40:02;;;;;;;1.00;1.00;;;;;;;;;;4964637;28;20992;-62
2022/10/15 08:42:32;;;;;;;1.07;1.07;;;;;;;;;;4950047;28;20228;-62
2022/10/15 08:44:58;;;;;;;0.83;0.83;;;;;;;;;;4953510;28;20233;-61
2022/10/15 08:47:26;;;;;;;1.00;1.00;;;;;;;;;;4956518;28;20230;-62
2022/10/15 08:49:59;;;;;;;0.90;0.90;;;;;;;;;;4942191;28;20465;-59
2022/10/15 08:52:27;;;;;;;0.90;0.90;;;;;;;;;;4934135;28;20581;-59
2022/10/15 08:54:53;;;;;;;0.90;0.90;;;;;;;;;;4907050;28;20298;-59
2022/10/15 08:57:25;;;;;;;1.00;1.00;;;;;;;;;;4916379;28;20317;-60
2022/10/15 08:59:57;;;;;;;0.90;0.90;;;;;;;;;;4923989;28;20293;-62
2022/10/15 09:02:29;;;;;;;0.93;0.93;;;;;;;;;;4881042;28;20241;-59
2022/10/15 09:05:15;;;;;;;1.10;1.10;;;;;;;;;;4894269;28;21054;-60
2022/10/15 09:07:42;;;;;;;0.90;0.90;;;;;;;;;;4906615;28;20233;-59
2022/10/15 09:10:23;;;;;;;1.00;1.00;;;;;;;;;;4891166;28;20235;-59
2022/10/15 09:12:59;;;;;;;1.00;1.00;;;;;;;;;;4930912;28;20246;-60
2022/10/15 09:15:25;;;;;;;0.90;0.90;;;;;;;;;;4926502;28;20233;-59
2022/10/15 09:17:51;;;;;;;1.13;1.13;;;;;;;;;;4941629;28;20939;-59
2022/10/15 09:20:18;;;;;;;1.00;1.00;;;;;;;;;;4912738;28;20335;-59
2022/10/15 09:22:44;;;;;;;0.80;0.80;;;;;;;;;;4933305;28;20308;-59
2022/10/15 09:25:14;;;;;;;1.00;1.00;;;;;;;;;;4901010;28;20987;-59
2022/10/15 09:27:41;;;;;;;1.00;1.00;;;;;;;;;;4938721;28;20239;-60
2022/10/15 09:30:26;;;;;;;1.10;1.10;;;;;;;;;;4909397;28;20243;-59
2022/10/15 09:32:59;;;;;;;1.10;1.10;;;;;;;;;;4922679;28;21120;-59
2022/10/15 09:35:31;;;;;;;1.10;1.10;;;;;;;;;;4896703;28;20411;-59
2022/10/15 09:38:00;;;;;;;1.00;1.00;;;;;;;;;;4912317;28;20229;-59
2022/10/15 09:40:29;;;;;;;1.00;1.00;;;;;;;;;;4891316;28;20832;-59
2022/10/15 09:42:55;;;;;;;1.00;1.00;;;;;;;;;;4898202;28;20218;-60
2022/10/15 09:45:24;;;;;;;1.10;1.10;;;;;;;;;;4897800;28;20620;-58
2022/10/15 09:47:50;;;;;;;0.90;0.90;;;;;;;;;;4891704;28;20579;-59
2022/10/15 09:50:16;;;;;;;0.90;0.90;;;;;;;;;;4913602;28;20250;-60
2022/10/15 09:52:52;;;;;;;1.00;1.00;;;;;;;;;;4926269;28;20597;-59
2022/10/15 09:55:24;;;;;;;0.98;0.98;;;;;;;;;;4911039;28;20225;-59
2022/10/15 09:57:51;;;;;;;1.00;1.00;;;;;;;;;;4914123;28;20232;-59
2022/10/15 10:00:17;;;;;;;1.00;1.00;;;;;;;;;;4904552;28;20226;-59
2022/10/15 10:02:43;;;;;;;1.00;1.00;;;;;;;;;;4913477;28;20273;-60
2022/10/15 10:05:31;;;;;;;0.90;0.90;;;;;;;;;;4924025;28;20347;-59
2022/10/15 10:08:15;;;;;;;1.00;1.00;;;;;;;;;;4909170;28;20238;-59
2022/10/15 10:10:41;;;;;;;1.00;1.00;;;;;;;;;;4903578;28;20260;-60
2022/10/15 10:13:08;;;;;;;1.00;1.00;;;;;;;;;;4906877;28;21194;-59
2022/10/15 10:15:39;;;;;;;1.10;1.10;;;;;;;;;;4937127;28;20234;-59
2022/10/15 10:18:05;;;;;;;1.00;1.00;;;;;;;;;;4913887;28;21075;-61
2022/10/15 10:20:31;;;;;;;1.00;1.00;;;;;;;;;;4926354;28;20978;-61
2022/10/15 10:22:58;;;;;;;1.00;1.00;;;;;;;;;;4936480;28;20213;-60
2022/10/15 10:25:32;;;;;;;1.10;1.10;;;;;;;;;;4902601;28;20264;-60
2022/10/15 10:28:04;;;;;;;1.00;1.00;;;;;;;;;;4917895;28;21057;-61
2022/10/15 10:30:34;;;;;;;1.20;1.20;;;;;;;;;;4920904;28;20302;-61
2022/10/15 10:33:00;;;;;;;1.10;1.10;;;;;;;;;;4905152;28;20238;-61
2022/10/15 10:35:29;;;;;;;1.10;1.10;;;;;;;;;;4912306;28;20800;-60
2022/10/15 10:37:54;;;;;;;0.90;0.90;;;;;;;;;;4883436;28;20222;-60
2022/10/15 10:40:22;;;;;;;0.90;0.90;;;;;;;;;;4938010;28;20232;-60
2022/10/15 10:42:48;;;;;;;1.00;1.00;;;;;;;;;;4928349;28;20231;-59
2022/10/15 10:45:21;;;;;;;1.10;1.10;;;;;;;;;;4944188;28;20217;-60
2022/10/15 10:47:46;;;;;;;1.00;1.00;;;;;;;;;;4934416;28;20208;-61
2022/10/15 10:50:28;;;;;;;0.97;0.97;;;;;;;;;;4937652;28;20276;-60
2022/10/15 11:36:23;;;;;;;1.40;1.40;;;;;;;;;;4987047;23;20596;-60
2022/10/15 11:38:52;;;;;;;1.60;1.60;;;;;;;;;;4990067;28;20235;-60
2022/10/15 11:41:27;;;;;;;1.40;1.40;;;;;;;;;;4988565;28;20244;-59
2022/10/15 11:44:21;;;;;;;1.58;1.58;;;;;;;;;;4987552;28;20292;-59
2022/10/15 11:49:53;;;;;;;1.63;1.63;;;;;;;;;;5039947;23;20246;-71
2022/10/15 11:52:25;;;;;;;1.67;1.67;;;;;;;;;;5030655;28;21169;-71
2022/10/15 11:55:02;;;;;;;1.50;1.50;;;;;;;;;;5017472;28;20231;-71
2022/10/15 11:57:28;;;;;;;1.73;1.63;;;;;;;;;;5023235;28;20215;-66
2022/10/15 12:00:06;;;;;;;1.60;1.60;;;;;;;;;;5027635;28;20322;-66
2022/10/15 12:02:35;;;;;;;1.60;1.60;;;;;;;;;;5023039;28;20235;-65
2022/10/15 12:05:05;;;;;;;1.67;1.67;;;;;;;;;;5037082;28;20288;-65
2022/10/15 12:07:33;;;;;;;1.70;1.70;;;;;;;;;;5045546;28;20203;-65
2022/10/15 12:10:15;;;;;;;1.40;1.40;;;;;;;;;;5040934;28;20200;-65
2022/10/15 12:12:55;;;;;;;1.50;1.50;;;;;;;;;;5036918;28;20677;-65
2022/10/15 12:15:27;;;;;;;1.30;1.30;;;;;;;;;;5035272;28;20243;-65
2022/10/15 12:17:53;;;;;;;1.50;1.50;;;;;;;;;;5035949;28;20215;-64
2022/10/15 12:20:19;;;;;;;1.40;1.40;;;;;;;;;;5040180;28;20777;-64
2022/10/15 12:22:51;;;;;;;1.38;1.38;;;;;;;;;;5026976;28;20216;-64
2022/10/15 12:25:33;;;;;;;1.47;1.47;;;;;;;;;;5027974;28;20232;-64
2022/10/15 12:27:59;;;;;;;1.30;1.30;;;;;;;;;;5014641;28;20227;-65
2022/10/15 12:30:26;;;;;;;1.30;1.30;;;;;;;;;;5023524;28;20614;-71
2022/10/15 12:32:51;;;;;;;1.20;1.20;;;;;;;;;;5039891;28;21520;-70
2022/10/15 12:35:19;;;;;;;1.10;1.10;;;;;;;;;;5045265;28;20275;-71
2022/10/15 12:37:45;;;;;;;1.20;1.20;;;;;;;;;;5029042;28;20690;-73
2022/10/15 16:16:18;;;;;;;1.30;1.30;;;;;;;;;;4943656;28;20240;-55
2022/10/15 16:18:44;;;;;;;1.53;1.53;;;;;;;;;;4993110;28;20209;-55
2022/10/15 16:21:10;;;;;;;1.30;1.30;;;;;;;;;;4986516;28;20347;-55
2022/10/15 16:23:36;;;;;;;1.40;1.40;;;;;;;;;;4990014;28;20263;-55
2022/10/15 16:26:02;;;;;;;1.50;1.50;;;;;;;;;;4973803;28;20233;-55
2022/10/15 16:28:27;;;;;;;1.60;1.60;;;;;;;;;;4958480;28;21136;-55
2022/10/15 16:30:53;;;;;;;1.50;1.50;;;;;;;;;;4971653;28;20257;-55
2022/10/15 16:33:19;;;;;;;1.20;1.20;;;;;;;;;;4975807;28;20229;-54
2022/10/15 16:35:51;;;;;;;1.57;1.57;;;;;;;;;;4972004;28;20227;-55
2022/10/15 16:38:17;;;;;;;1.30;1.30;;;;;;;;;;4977763;28;20225;-56
2022/10/15 16:40:46;;;;;;;1.50;1.50;;;;;;;;;;4983794;28;20774;-54
2022/10/15 16:43:12;;;;;;;1.50;1.50;;;;;;;;;;4968093;28;20305;-54
2022/10/15 16:45:38;;;;;;;1.40;1.40;;;;;;;;;;4988136;28;20234;-56
2022/10/15 16:48:05;;;;;;;1.30;1.30;;;;;;;;;;4951684;28;20702;-56
2022/10/15 16:50:31;;;;;;;1.50;1.50;;;;;;;;;;4980107;28;20314;-54
2022/10/15 16:52:57;;;;;;;1.40;1.40;;;;;;;;;;4976691;28;20325;-55
2022/10/15 16:55:22;;;;;;;1.50;1.50;;;;;;;;;;4980784;28;20225;-55
2022/10/15 16:57:48;;;;;;;1.30;1.30;;;;;;;;;;4970063;28;20231;-55
2022/10/15 17:00:14;;;;;;;1.60;1.60;;;;;;;;;;4974125;28;20216;-56
2022/10/15 17:02:40;;;;;;;1.60;1.60;;;;;;;;;;4981448;28;20225;-55
2022/10/15 17:05:06;;;;;;;1.60;1.60;;;;;;;;;;5004796;28;20228;-55
2022/10/15 17:07:32;;;;;;;1.33;1.33;;;;;;;;;;4995886;28;20638;-56
2022/10/15 17:09:58;;;;;;;1.30;1.30;;;;;;;;;;4990223;28;20221;-55
2022/10/15 17:12:24;;;;;;;1.40;1.40;;;;;;;;;;4990341;28;20597;-55
2022/10/15 17:14:50;;;;;;;1.50;1.50;;;;;;;;;;4981936;28;20246;-55
2022/10/15 17:17:16;;;;;;;1.50;1.50;;;;;;;;;;4979629;28;20672;-55
2022/10/15 17:19:42;;;;;;;1.40;1.40;;;;;;;;;;4961540;28;20324;-55
2022/10/15 17:22:08;;;;;;;1.63;1.63;;;;;;;;;;4972999;28;20839;-55
2022/10/15 17:24:34;;;;;;;1.30;1.30;;;;;;;;;;4986409;28;20233;-55
2022/10/15 17:27:00;;;;;;;1.40;1.40;;;;;;;;;;4985063;28;20230;-55
2022/10/15 17:29:26;;;;;;;1.30;1.30;;;;;;;;;;4994308;28;20275;-55
2022/10/15 17:31:52;;;;;;;1.20;1.20;;;;;;;;;;4976068;28;20236;-55
2022/10/15 17:34:18;;;;;;;1.30;1.30;;;;;;;;;;4998994;28;20251;-55
2022/10/15 17:36:46;;;;;;;1.30;1.30;;;;;;;;;;4992427;28;20656;-55
2022/10/15 17:39:12;;;;;;;1.20;1.20;;;;;;;;;;4989898;28;20231;-55
2022/10/15 17:41:38;;;;;;;1.23;1.23;;;;;;;;;;4990894;28;20227;-55
2022/10/15 17:44:04;;;;;;;1.10;1.10;;;;;;;;;;5000692;28;20718;-55
2022/10/15 17:46:30;;;;;;;1.10;1.10;;;;;;;;;;4991793;28;20865;-55
2022/10/15 17:48:58;;;;;;;1.20;1.20;;;;;;;;;;4989038;28;20303;-55
2022/10/15 17:51:28;;;;;;;1.20;1.20;;;;;;;;;;4983105;28;20240;-55
2022/10/15 17:53:54;;;;;;;1.30;1.30;;;;;;;;;;4995931;28;20710;-55
2022/10/15 17:56:26;;;;;;;1.40;1.40;;;;;;;;;;4984804;28;20237;-55
2022/10/15 17:58:53;;;;;;;1.37;1.37;;;;;;;;;;4962828;28;20358;-55
2022/10/15 18:01:20;;;;;;;1.93;1.83;;;;;;;;;;4962574;28;20589;-55
2022/10/15 18:03:47;;;;;;;2.23;2.13;;;;;;;;;;4969247;28;20221;-54
2022/10/15 18:06:14;;;;;;;1.97;1.87;;;;;;;;;;4973961;28;20700;-55
2022/10/15 18:08:40;;;;;;;1.93;1.83;;;;;;;;;;4984159;28;20244;-55
2022/10/15 18:11:06;;;;;;;2.17;2.07;;;;;;;;;;4968352;28;20223;-55
2022/10/15 18:13:32;;;;;;;1.90;1.80;;;;;;;;;;4977016;28;20239;-55
2022/10/15 18:15:58;;;;;;;1.77;1.70;;;;;;;;;;4989937;28;20238;-55
2022/10/15 18:18:24;;;;;;;2.10;2.00;;;;;;;;;;4982221;28;20616;-54
2022/10/15 18:20:50;;;;;;;1.70;1.70;;;;;;;;;;4980173;28;20787;-55
2022/10/15 18:23:16;;;;;;;1.90;1.80;;;;;;;;;;4993976;28;20238;-53
2022/10/15 18:25:42;;;;;;;1.90;1.80;;;;;;;;;;4988480;28;20268;-55
2022/10/15 18:28:08;;;;;;;1.90;1.80;;;;;;;;;;4982473;28;20345;-53
2022/10/15 18:30:35;;;;;;;2.20;2.10;;;;;;;;;;4990555;28;20226;-55
2022/10/15 18:33:01;;;;;;;1.80;1.70;;;;;;;;;;4995111;28;20224;-55
2022/10/15 18:35:27;;;;;;;2.13;2.03;;;;;;;;;;4989531;28;20889;-54
2022/10/15 18:37:53;;;;;;;1.90;1.80;;;;;;;;;;4989769;28;20221;-55
2022/10/15 18:40:19;;;;;;;1.67;1.67;;;;;;;;;;4984909;28;20229;-55
2022/10/15 18:42:45;;;;;;;2.00;1.90;;;;;;;;;;4993165;28;20717;-53
2022/10/15 18:45:11;;;;;;;1.80;1.70;;;;;;;;;;4990854;28;20232;-54
2022/10/15 18:47:37;;;;;;;1.70;1.67;;;;;;;;;;5006803;28;20225;-54
2022/10/15 18:50:04;;;;;;;1.50;1.50;;;;;;;;;;4984779;28;20279;-54
2022/10/15 18:52:30;;;;;;;1.90;1.80;;;;;;;;;;4993115;28;20292;-54
2022/10/15 18:54:56;;;;;;;2.03;1.93;;;;;;;;;;4983461;28;20722;-56
2022/10/15 18:57:22;;;;;;;1.60;1.60;;;;;;;;;;4989119;28;20233;-55
2022/10/15 18:59:48;;;;;;;2.00;1.90;;;;;;;;;;4963106;28;20678;-55
2022/10/15 19:02:14;;;;;;;1.80;1.70;;;;;;;;;;4957174;28;20277;-56
2022/10/15 19:04:40;;;;;;;1.53;1.53;;;;;;;;;;4988836;28;20746;-56
2022/10/15 19:07:06;;;;;;;1.60;1.60;;;;;;;;;;4974279;28;20300;-55
2022/10/15 19:09:33;;;;;;;1.50;1.50;;;;;;;;;;4987980;28;20257;-56